createdAt,value
2019-05-05T00:00:39.893Z,19.12
2019-05-05T00:03:26.186Z,17.20
2019-05-05T00:05:56.250Z,17.20
2019-05-05T00:08:24.801Z,17.35
2019-05-05T00:11:12.596Z,20.32
2019-05-05T00:13:45.116Z,23.02
2019-05-05T00:16:31.024Z,18.65
2019-05-05T00:18:59.773Z,18.67
2019-05-05T00:21:27.945Z,23.05
2019-05-05T00:23:56.145Z,21.45
2019-05-05T00:26:24.880Z,21.73
2019-05-05T00:28:55.397Z,18.90
2019-05-05T00:31:24.304Z,19.62
2019-05-05T00:33:54.429Z,19.48
2019-05-05T00:36:24.574Z,19.48
2019-05-05T00:38:55.204Z,18.40
2019-05-05T00:41:25.352Z,19.67
2019-05-05T00:43:55.341Z,21.82
2019-05-05T00:46:25.200Z,16.57
2019-05-05T00:48:55.068Z,15.85
2019-05-05T00:51:24.423Z,16.27
2019-05-05T00:53:55.315Z,15.20
2019-05-05T00:56:25.014Z,16.25
2019-05-05T00:58:55.325Z,17.52
2019-05-05T01:01:31.054Z,19.23
2019-05-05T01:04:00.301Z,16.62
2019-05-05T01:06:30.120Z,17.48
2019-05-05T01:08:58.301Z,16.77
2019-05-05T01:11:26.540Z,16.05
2019-05-05T01:13:54.864Z,17.67
2019-05-05T01:16:24.695Z,16.15
2019-05-05T01:18:55.189Z,16.62
2019-05-05T01:21:24.442Z,16.20
2019-05-05T01:23:54.853Z,15.95
2019-05-05T01:26:24.878Z,16.80
2019-05-05T01:28:53.198Z,17.60
2019-05-05T01:31:22.198Z,16.25
2019-05-05T01:33:54.105Z,17.45
2019-05-05T01:36:23.701Z,17.32
2019-05-05T01:38:59.710Z,18.23
2019-05-05T01:41:35.510Z,16.30
2019-05-05T01:44:05.103Z,12.58
2019-05-05T01:46:35.317Z,15.05
2019-05-05T01:49:05.322Z,15.68
2019-05-05T01:51:35.430Z,17.10
2019-05-05T01:54:05.159Z,16.45
2019-05-05T01:56:35.180Z,15.65
2019-05-05T01:59:05.191Z,17.27
2019-05-05T02:01:35.216Z,17.67
2019-05-05T02:04:05.431Z,17.67
2019-05-05T02:06:34.970Z,18.67
2019-05-05T02:09:05.271Z,17.67
2019-05-05T02:11:35.316Z,16.82
2019-05-05T02:14:05.107Z,17.07
2019-05-05T02:16:34.737Z,20.20
2019-05-05T02:19:04.973Z,18.30
2019-05-05T02:21:35.105Z,19.35
2019-05-05T02:24:05.223Z,18.65
2019-05-05T02:26:35.015Z,20.32
2019-05-05T02:29:17.377Z,19.35
2019-05-05T02:32:06.340Z,20.37
2019-05-05T02:34:35.988Z,20.45
2019-05-05T02:37:05.446Z,22.62
2019-05-05T02:39:35.355Z,22.67
2019-05-05T02:42:05.694Z,23.40
2019-05-05T02:44:34.793Z,25.65
2019-05-05T02:47:08.043Z,23.25
2019-05-05T02:49:36.205Z,21.42
2019-05-05T02:52:05.139Z,23.50
2019-05-05T02:54:34.052Z,24.05
2019-05-05T02:57:04.515Z,23.87
2019-05-05T02:59:35.293Z,23.83
2019-05-05T03:02:08.225Z,26.57
2019-05-05T03:04:36.389Z,23.98
2019-05-05T03:07:04.821Z,26.40
2019-05-05T03:09:34.670Z,24.18
2019-05-05T03:12:04.777Z,26.48
2019-05-05T03:14:34.112Z,28.05
2019-05-05T03:17:04.307Z,27.45
2019-05-05T03:19:33.938Z,26.87
2019-05-05T03:22:03.638Z,27.67
2019-05-05T03:24:34.087Z,26.95
2019-05-05T03:27:03.848Z,26.15
2019-05-05T03:29:33.585Z,28.75
2019-05-05T03:32:05.258Z,28.23
2019-05-05T03:34:34.366Z,26.93
2019-05-05T03:37:04.233Z,27.90
2019-05-05T03:39:34.033Z,24.98
2019-05-05T03:42:04.398Z,27.75
2019-05-05T03:44:40.225Z,28.10
2019-05-05T03:47:08.405Z,28.40
2019-05-05T03:49:36.585Z,28.20
2019-05-05T03:52:05.094Z,24.37
2019-05-05T03:54:34.274Z,26.33
2019-05-05T03:57:08.553Z,26.17
2019-05-05T03:59:39.892Z,30.27
2019-05-05T04:02:09.785Z,24.80
2019-05-05T04:04:39.596Z,30.45
2019-05-05T04:07:08.051Z,28.90
2019-05-05T04:09:36.632Z,28.75
2019-05-05T04:12:05.050Z,27.22
2019-05-05T04:14:34.803Z,31.70
2019-05-05T04:17:05.666Z,32.00
2019-05-05T04:19:35.474Z,28.07
2019-05-05T04:22:04.216Z,28.12
2019-05-05T04:24:34.192Z,26.68
2019-05-05T04:27:04.001Z,25.35
2019-05-05T04:29:34.516Z,22.73
2019-05-05T04:32:04.484Z,26.40
2019-05-05T04:34:34.741Z,23.92
2019-05-05T04:37:04.132Z,24.23
2019-05-05T04:39:34.287Z,26.68
2019-05-05T04:42:04.996Z,23.95
2019-05-05T04:44:34.649Z,23.05
2019-05-05T04:47:16.662Z,22.15
2019-05-05T04:49:53.811Z,22.45
2019-05-05T04:52:34.346Z,22.35
2019-05-05T04:55:03.903Z,20.12
2019-05-05T04:57:32.472Z,20.15
2019-05-05T05:00:00.683Z,21.35
2019-05-05T05:02:46.731Z,20.90
2019-05-05T05:05:16.544Z,16.40
2019-05-05T05:07:45.033Z,19.40
2019-05-05T05:10:13.837Z,20.82
2019-05-05T05:12:43.612Z,19.82
2019-05-05T05:15:11.980Z,18.05
2019-05-05T05:17:44.194Z,19.57
2019-05-05T05:20:13.993Z,20.25
2019-05-05T05:22:43.548Z,21.17
2019-05-05T05:25:13.595Z,21.75
2019-05-05T05:27:44.153Z,22.20
2019-05-05T05:30:13.766Z,20.95
2019-05-05T05:32:41.685Z,20.27
2019-05-05T05:35:09.925Z,19.48
2019-05-05T05:37:38.215Z,17.50
2019-05-05T05:40:14.487Z,17.62
2019-05-05T05:42:43.967Z,17.25
2019-05-05T05:45:26.360Z,16.27
2019-05-05T05:47:56.181Z,18.25
2019-05-05T05:50:26.017Z,15.93
2019-05-05T05:52:54.190Z,17.02
2019-05-05T05:55:23.798Z,15.35
2019-05-05T05:57:54.008Z,16.23
2019-05-05T06:00:23.739Z,14.78
2019-05-05T06:02:54.383Z,13.28
2019-05-05T06:05:23.759Z,17.05
2019-05-05T06:07:54.278Z,16.35
2019-05-05T06:10:26.644Z,15.48
2019-05-05T06:12:52.026Z,14.68
2019-05-05T06:15:20.215Z,16.32
2019-05-05T06:17:48.381Z,15.83
2019-05-05T06:20:16.881Z,16.45
2019-05-05T06:22:45.372Z,15.75
2019-05-05T06:25:15.870Z,13.15
2019-05-05T06:27:44.586Z,12.68
2019-05-05T06:30:13.809Z,13.15
2019-05-05T06:32:43.746Z,14.53
2019-05-05T06:35:13.902Z,12.33
2019-05-05T06:37:54.612Z,11.75
2019-05-05T06:40:25.447Z,11.12
2019-05-05T06:43:13.893Z,12.68
2019-05-05T06:45:55.498Z,13.08
2019-05-05T06:48:23.787Z,13.28
2019-05-05T06:50:51.905Z,12.93
2019-05-05T06:53:20.074Z,14.33
2019-05-05T06:55:48.253Z,15.50
2019-05-05T06:58:16.421Z,14.05
2019-05-05T07:00:44.917Z,13.25
2019-05-05T07:03:14.010Z,13.00
2019-05-05T07:05:43.767Z,12.85
2019-05-05T07:08:13.775Z,14.07
2019-05-05T07:10:44.271Z,12.13
2019-05-05T07:13:13.874Z,12.00
2019-05-05T07:15:43.790Z,13.53
2019-05-05T07:18:14.067Z,12.50
2019-05-05T07:20:43.572Z,14.07
2019-05-05T07:23:14.293Z,14.38
2019-05-05T07:25:45.303Z,12.30
2019-05-05T07:28:14.526Z,12.33
2019-05-05T07:30:44.234Z,11.38
2019-05-05T07:33:14.866Z,14.07
2019-05-05T07:36:00.221Z,11.48
2019-05-05T07:38:24.419Z,11.12
2019-05-05T07:40:54.539Z,11.25
2019-05-05T07:43:23.974Z,9.75
2019-05-05T07:45:54.008Z,10.43
2019-05-05T07:48:24.179Z,9.55
2019-05-05T07:51:02.134Z,9.00
2019-05-05T07:53:24.416Z,12.33
2019-05-05T07:55:54.199Z,10.65
2019-05-05T07:58:24.143Z,10.30
2019-05-05T08:00:54.105Z,13.70
2019-05-05T08:03:23.659Z,21.77
2019-05-05T08:05:54.379Z,12.80
2019-05-05T08:08:24.321Z,10.25
2019-05-05T08:10:54.171Z,11.35
2019-05-05T08:13:24.352Z,9.75
2019-05-05T08:15:59.755Z,9.65
2019-05-05T08:18:29.062Z,10.75
2019-05-05T08:20:58.872Z,10.35
2019-05-05T08:23:44.756Z,9.98
2019-05-05T08:26:15.021Z,10.13
2019-05-05T08:28:54.452Z,9.95
2019-05-05T08:31:26.797Z,9.43
2019-05-05T08:33:54.962Z,9.33
2019-05-05T08:36:23.534Z,10.08
2019-05-05T08:38:51.785Z,10.25
2019-05-05T08:41:20.065Z,11.45
2019-05-05T08:43:48.533Z,14.07
2019-05-05T08:46:16.703Z,13.18
2019-05-05T08:48:45.186Z,12.58
2019-05-05T08:51:14.156Z,11.48
2019-05-05T08:53:47.358Z,10.93
2019-05-05T08:56:14.451Z,10.45
2019-05-05T08:58:43.756Z,12.37
2019-05-05T09:01:12.021Z,12.70
2019-05-05T09:03:40.196Z,9.25
2019-05-05T09:06:08.360Z,9.30
2019-05-05T09:08:36.818Z,10.45
2019-05-05T09:11:05.120Z,10.08
2019-05-05T09:13:34.014Z,9.83
2019-05-05T09:16:03.834Z,10.13
2019-05-05T09:18:33.933Z,8.90
2019-05-05T09:21:04.206Z,9.33
2019-05-05T09:23:34.663Z,11.28
2019-05-05T09:26:21.213Z,8.75
2019-05-05T09:28:51.309Z,9.83
2019-05-05T09:31:19.472Z,9.83
2019-05-05T09:33:47.655Z,10.05
2019-05-05T09:36:16.132Z,8.35
2019-05-05T09:38:45.068Z,8.20
2019-05-05T09:41:14.335Z,9.50
2019-05-05T09:43:44.642Z,7.60
2019-05-05T09:46:14.366Z,7.72
2019-05-05T09:48:44.052Z,6.85
2019-05-05T09:51:13.640Z,7.10
2019-05-05T09:53:42.006Z,6.42
2019-05-05T09:56:10.195Z,7.17
2019-05-05T09:58:38.711Z,7.53
2019-05-05T10:01:07.751Z,6.92
2019-05-05T10:03:35.930Z,7.00
2019-05-05T10:06:04.978Z,6.60
2019-05-05T10:08:34.066Z,6.90
2019-05-05T10:11:04.130Z,6.20
2019-05-05T10:13:33.753Z,6.30
2019-05-05T10:16:03.836Z,5.47
2019-05-05T10:18:34.690Z,5.53
2019-05-05T10:21:01.742Z,5.30
2019-05-05T10:23:31.819Z,4.95
2019-05-05T10:26:01.619Z,6.28
2019-05-05T10:28:30.229Z,6.65
2019-05-05T10:30:58.399Z,6.83
2019-05-05T10:33:26.567Z,5.65
2019-05-05T10:35:54.731Z,5.12
2019-05-05T10:38:23.566Z,4.58
2019-05-05T10:40:53.618Z,4.58
2019-05-05T10:43:23.839Z,5.00
2019-05-05T10:45:52.095Z,5.28
2019-05-05T10:48:20.258Z,4.65
2019-05-05T10:50:48.430Z,4.72
2019-05-05T10:53:16.592Z,4.40
2019-05-05T10:55:45.151Z,4.40
2019-05-05T10:58:13.834Z,4.97
2019-05-05T11:00:47.591Z,4.92
2019-05-05T11:03:15.752Z,5.15
2019-05-05T11:05:44.805Z,4.12
2019-05-05T11:08:13.700Z,4.33
2019-05-05T11:10:44.579Z,4.75
2019-05-05T11:13:12.188Z,4.47
2019-05-05T11:15:40.364Z,4.00
2019-05-05T11:18:08.967Z,5.20
2019-05-05T11:20:37.138Z,3.83
2019-05-05T11:23:05.624Z,3.52
2019-05-05T11:25:33.906Z,3.77
2019-05-05T11:28:03.705Z,3.55
2019-05-05T11:30:34.020Z,3.60
2019-05-05T11:33:16.050Z,3.40
2019-05-05T11:36:04.611Z,3.52
2019-05-05T11:38:33.903Z,3.87
2019-05-05T11:41:04.671Z,3.33
2019-05-05T11:43:33.785Z,3.77
2019-05-05T11:46:02.385Z,4.05
2019-05-05T11:48:30.539Z,4.70
2019-05-05T11:50:58.963Z,4.65
2019-05-05T11:53:27.136Z,4.60
2019-05-05T11:55:55.619Z,3.90
2019-05-05T11:58:24.832Z,3.33
2019-05-05T12:00:54.562Z,3.92
2019-05-05T12:03:23.040Z,3.47
2019-05-05T12:05:51.211Z,3.58
2019-05-05T12:08:19.381Z,3.85
2019-05-05T12:10:54.133Z,4.10
2019-05-05T12:13:22.385Z,3.85
2019-05-05T12:15:53.826Z,4.10
2019-05-05T12:18:23.741Z,3.90
2019-05-05T12:20:54.239Z,3.83
2019-05-05T12:23:22.238Z,4.55
2019-05-05T12:25:56.673Z,5.25
2019-05-05T12:28:26.305Z,5.05
2019-05-05T12:30:57.411Z,4.72
2019-05-05T12:33:25.573Z,5.47
2019-05-05T12:35:54.366Z,4.80
2019-05-05T12:38:24.115Z,5.53
2019-05-05T12:40:53.549Z,4.87
2019-05-05T12:43:22.066Z,4.30
2019-05-05T12:46:00.922Z,5.28
2019-05-05T12:48:43.803Z,5.72
2019-05-05T12:51:12.101Z,5.42
2019-05-05T12:53:40.269Z,4.87
2019-05-05T12:56:08.436Z,5.95
2019-05-05T12:58:36.595Z,6.03
2019-05-05T13:01:06.410Z,5.47
2019-05-05T13:03:34.729Z,7.28
2019-05-05T13:06:04.098Z,6.50
2019-05-05T13:08:34.020Z,6.05
2019-05-05T13:11:04.057Z,5.60
2019-05-05T13:13:34.399Z,5.85
2019-05-05T13:16:04.255Z,5.70
2019-05-05T13:18:33.966Z,5.97
2019-05-05T13:21:06.555Z,4.90
2019-05-05T13:23:45.101Z,5.60
2019-05-05T13:26:17.620Z,6.42
2019-05-05T13:28:45.783Z,5.00
2019-05-05T13:31:14.216Z,6.08
2019-05-05T13:33:44.276Z,5.67
2019-05-05T13:36:13.763Z,6.08
2019-05-05T13:38:43.843Z,6.35
2019-05-05T13:41:12.110Z,5.28
2019-05-05T13:43:40.286Z,6.37
2019-05-05T13:46:10.087Z,6.25
2019-05-05T13:48:38.267Z,7.12
2019-05-05T13:51:08.068Z,7.28
2019-05-05T13:53:36.244Z,8.98
2019-05-05T13:56:11.861Z,8.58
2019-05-05T13:58:34.409Z,8.30
2019-05-05T14:01:03.734Z,6.92
2019-05-05T14:03:34.150Z,8.03
2019-05-05T14:06:04.583Z,9.10
2019-05-05T14:08:36.000Z,28.57
2019-05-05T14:11:03.636Z,4.05
2019-05-05T14:13:34.116Z,3.35
2019-05-05T14:16:03.893Z,3.70
2019-05-05T14:18:32.470Z,3.10
2019-05-05T14:21:00.953Z,3.58
2019-05-05T14:23:30.780Z,3.52
2019-05-05T14:25:59.006Z,3.35
2019-05-05T14:28:27.191Z,3.20
2019-05-05T14:31:00.003Z,2.80
2019-05-05T14:33:31.360Z,3.10
2019-05-05T14:36:04.995Z,2.83
2019-05-05T14:38:44.419Z,2.55
2019-05-05T14:41:13.628Z,2.90
2019-05-05T14:43:43.774Z,3.17
2019-05-05T14:46:14.370Z,3.10
2019-05-05T14:48:44.068Z,3.80
2019-05-05T14:51:14.411Z,3.87
2019-05-05T14:53:43.758Z,3.08
2019-05-05T14:56:13.574Z,3.30
2019-05-05T14:58:43.714Z,3.55
2019-05-05T15:01:14.285Z,3.20
2019-05-05T15:03:41.945Z,3.60
2019-05-05T15:06:11.870Z,3.55
2019-05-05T15:08:56.497Z,4.80
2019-05-05T15:11:41.764Z,3.70
2019-05-05T15:14:10.038Z,4.22
2019-05-05T15:16:38.208Z,4.20
2019-05-05T15:19:06.388Z,4.22
2019-05-05T15:21:34.863Z,6.80
2019-05-05T15:24:03.078Z,4.65
2019-05-05T15:26:31.479Z,5.00
2019-05-05T15:29:01.757Z,6.65
2019-05-05T15:31:29.818Z,6.62
2019-05-05T15:33:57.997Z,6.05
2019-05-05T15:36:26.176Z,11.22
2019-05-05T15:38:55.219Z,8.43
2019-05-05T15:41:23.716Z,7.83
2019-05-05T15:43:51.888Z,8.60
2019-05-05T15:46:20.402Z,10.20
2019-05-05T15:48:48.582Z,21.48
2019-05-05T15:51:16.775Z,9.13
2019-05-05T15:53:44.935Z,6.50
2019-05-05T15:56:13.874Z,5.80
2019-05-05T15:58:43.549Z,8.40
2019-05-05T16:01:11.944Z,9.73
2019-05-05T16:03:40.116Z,10.10
2019-05-05T16:06:08.304Z,12.30
2019-05-05T16:08:36.485Z,10.90
2019-05-05T16:11:05.013Z,9.40
2019-05-05T16:13:35.164Z,9.98
2019-05-05T16:16:08.022Z,8.13
2019-05-05T16:18:37.846Z,11.53
2019-05-05T16:21:10.218Z,9.23
2019-05-05T16:23:46.070Z,9.10
2019-05-05T16:26:14.240Z,7.70
2019-05-05T16:28:44.501Z,9.95
2019-05-05T16:31:14.423Z,11.93
2019-05-05T16:33:44.125Z,10.55
2019-05-05T16:36:13.805Z,9.88
2019-05-05T16:38:43.575Z,14.55
2019-05-05T16:41:13.606Z,12.63
2019-05-05T16:43:44.103Z,11.12
2019-05-05T16:46:16.753Z,12.82
2019-05-05T16:48:43.939Z,11.65
2019-05-05T16:51:13.945Z,10.18
2019-05-05T16:53:42.396Z,9.83
2019-05-05T16:56:14.057Z,10.93
2019-05-05T16:58:44.887Z,10.20
2019-05-05T17:01:16.906Z,8.90
2019-05-05T17:03:45.856Z,9.85
2019-05-05T17:06:14.491Z,9.25
2019-05-05T17:08:44.380Z,9.40
2019-05-05T17:11:14.777Z,7.92
2019-05-05T17:13:49.766Z,8.60
2019-05-05T17:16:35.584Z,8.15
2019-05-05T17:19:20.597Z,8.40
2019-05-05T17:21:50.685Z,6.95
2019-05-05T17:24:19.151Z,7.80
2019-05-05T17:26:47.641Z,7.80
2019-05-05T17:29:16.116Z,7.80
2019-05-05T17:31:44.490Z,8.60
2019-05-05T17:34:13.744Z,7.78
2019-05-05T17:36:42.027Z,7.30
2019-05-05T17:39:10.204Z,8.63
2019-05-05T17:41:45.782Z,9.88
2019-05-05T17:44:15.590Z,10.72
2019-05-05T17:46:45.403Z,10.13
2019-05-05T17:49:15.539Z,9.10
2019-05-05T17:51:54.881Z,8.30
2019-05-05T17:54:27.689Z,8.48
2019-05-05T17:56:56.166Z,9.43
2019-05-05T17:59:24.646Z,12.68
2019-05-05T18:01:53.989Z,12.73
2019-05-05T18:04:22.844Z,13.45
2019-05-05T18:06:58.575Z,14.85
2019-05-05T18:09:28.701Z,17.05
2019-05-05T18:11:58.527Z,17.90
2019-05-05T18:14:31.028Z,17.73
2019-05-05T18:16:59.191Z,9.93
2019-05-05T18:19:27.391Z,9.45
2019-05-05T18:21:55.808Z,10.90
2019-05-05T18:24:24.410Z,11.68
2019-05-05T18:26:53.672Z,13.38
2019-05-05T18:29:24.121Z,15.10
2019-05-05T18:31:53.557Z,15.25
2019-05-05T18:34:23.604Z,15.25
2019-05-05T18:36:54.181Z,15.13
2019-05-05T18:39:22.200Z,15.85
2019-05-05T18:41:55.030Z,14.10
2019-05-05T18:44:24.850Z,12.68
2019-05-05T18:47:14.630Z,11.65
2019-05-05T18:49:41.425Z,12.47
2019-05-05T18:52:10.601Z,14.15
2019-05-05T18:54:38.785Z,14.43
2019-05-05T18:57:08.127Z,15.93
2019-05-05T18:59:36.378Z,16.75
2019-05-05T19:02:14.323Z,18.10
2019-05-05T19:04:48.694Z,17.67
2019-05-05T19:07:30.527Z,19.05
2019-05-05T19:09:59.043Z,21.80
2019-05-05T19:12:27.562Z,21.35
2019-05-05T19:14:55.729Z,20.12
2019-05-05T19:17:24.171Z,18.62
2019-05-05T19:19:54.970Z,21.02
2019-05-05T19:22:23.333Z,14.95
2019-05-05T19:24:51.519Z,13.05
2019-05-05T19:27:19.687Z,13.78
2019-05-05T19:29:47.944Z,14.75
2019-05-05T19:32:16.118Z,15.70
2019-05-05T19:34:44.393Z,15.08
2019-05-05T19:37:14.022Z,12.07
2019-05-05T19:39:42.546Z,13.60
2019-05-05T19:42:10.717Z,12.85
2019-05-05T19:44:38.904Z,12.98
2019-05-05T19:47:20.460Z,14.15
2019-05-05T19:49:50.284Z,17.05
2019-05-05T19:52:18.450Z,21.73
2019-05-05T19:54:47.661Z,20.17
2019-05-05T19:57:16.149Z,17.55
2019-05-05T19:59:44.789Z,19.92
2019-05-05T20:02:12.977Z,20.92
2019-05-05T20:04:41.156Z,20.72
2019-05-05T20:07:09.674Z,20.97
2019-05-05T20:09:37.852Z,20.75
2019-05-05T20:12:08.945Z,19.73
2019-05-05T20:14:37.475Z,17.90
2019-05-05T20:17:10.237Z,18.35
2019-05-05T20:19:40.058Z,19.35
2019-05-05T20:22:08.223Z,23.50
2019-05-05T20:24:36.411Z,27.13
2019-05-05T20:27:04.763Z,27.40
2019-05-05T20:29:36.742Z,21.73
2019-05-05T20:32:04.331Z,22.82
2019-05-05T20:34:50.517Z,22.93
2019-05-05T20:37:20.330Z,23.03
2019-05-05T20:39:48.517Z,21.95
2019-05-05T20:42:16.696Z,22.32
2019-05-05T20:44:44.881Z,20.65
2019-05-05T20:47:13.122Z,23.15
2019-05-05T20:49:41.302Z,22.73
2019-05-05T20:52:10.805Z,22.98
2019-05-05T20:54:39.294Z,22.77
2019-05-05T20:57:07.778Z,25.35
2019-05-05T20:59:36.255Z,24.40
2019-05-05T21:02:04.781Z,23.85
2019-05-05T21:04:34.535Z,23.50
2019-05-05T21:07:04.507Z,21.87
2019-05-05T21:09:34.541Z,22.10
2019-05-05T21:12:04.701Z,20.32
2019-05-05T21:14:37.213Z,20.95
2019-05-05T21:17:04.037Z,21.70
2019-05-05T21:19:34.518Z,20.70
2019-05-05T21:22:20.980Z,18.85
2019-05-05T21:24:49.125Z,18.70
2019-05-05T21:27:17.310Z,19.55
2019-05-05T21:29:45.785Z,20.32
2019-05-05T21:32:14.201Z,20.17
2019-05-05T21:34:44.346Z,20.43
2019-05-05T21:37:14.126Z,19.37
2019-05-05T21:39:42.188Z,20.57
2019-05-05T21:42:10.656Z,22.95
2019-05-05T21:44:38.827Z,24.52
2019-05-05T21:47:07.308Z,24.87
2019-05-05T21:49:35.478Z,21.73
2019-05-05T21:52:07.907Z,20.92
2019-05-05T21:54:43.923Z,19.67
2019-05-05T21:57:16.530Z,18.55
2019-05-05T21:59:54.822Z,18.90
2019-05-05T22:02:15.351Z,19.02
2019-05-05T22:04:43.633Z,24.15
2019-05-05T22:07:11.816Z,22.07
2019-05-05T22:09:40.057Z,23.07
2019-05-05T22:12:08.236Z,22.67
2019-05-05T22:14:36.406Z,22.30
2019-05-05T22:17:04.791Z,26.55
2019-05-05T22:19:44.525Z,26.93
2019-05-05T22:22:14.621Z,29.05
2019-05-05T22:24:44.401Z,25.37
2019-05-05T22:27:12.668Z,24.02
2019-05-05T22:29:41.098Z,24.32
2019-05-05T22:32:09.280Z,23.40
2019-05-05T22:34:37.447Z,25.40
2019-05-05T22:37:09.238Z,24.20
2019-05-05T22:39:35.524Z,19.75
2019-05-05T22:42:04.718Z,20.88
2019-05-05T22:44:33.925Z,19.70
2019-05-05T22:47:04.496Z,18.75
2019-05-05T22:49:32.066Z,18.92
2019-05-05T22:52:00.232Z,21.35
2019-05-05T22:54:28.672Z,19.57
2019-05-05T22:56:56.845Z,17.05
2019-05-05T22:59:26.175Z,19.15
2019-05-05T23:01:54.487Z,17.27
2019-05-05T23:04:24.305Z,18.95
2019-05-05T23:06:54.293Z,23.50
2019-05-05T23:09:22.482Z,24.07
2019-05-05T23:11:50.652Z,22.65
2019-05-05T23:14:28.124Z,22.80
2019-05-05T23:16:58.187Z,21.90
2019-05-05T23:19:28.020Z,30.27
2019-05-05T23:21:58.152Z,27.70
2019-05-05T23:24:37.127Z,26.15
2019-05-05T23:27:05.302Z,23.12
2019-05-05T23:29:34.161Z,26.65
2019-05-05T23:32:02.434Z,28.50
2019-05-05T23:34:30.904Z,25.90
2019-05-05T23:36:59.073Z,30.27
2019-05-05T23:39:27.561Z,27.82
2019-05-05T23:41:56.567Z,35.70
2019-05-05T23:44:24.749Z,39.90
2019-05-05T23:46:53.817Z,35.60
2019-05-05T23:49:24.170Z,39.48
2019-05-05T23:51:53.963Z,33.65
2019-05-05T23:54:24.562Z,40.10
2019-05-05T23:56:53.721Z,42.38
2019-05-05T23:59:24.145Z,28.50
